Delray Beach, FL (33444)

4:29 PM EDT on April 23, 2017 (GMT -0400)
woods of southridge 1 mi from ocean | | Change Station

Elev 43 ft 26.44 °N, 80.08 °W | Updated 3 minutes ago

Rain
Rain
72.0 °F
Feels Like 72.0 °F
N
0.0
Wind Variable Wind from WSW
Gusts 1.0 mph

Today
High -- | Low -- °F
--% Chance of Precip.
Yesterday
High -- | Low -- °F
Precip. -- in
Pressure 29.76 in
Visibility 10.0 miles
Clouds Few 6000 ft
Few 12000 ft
Dew Point 71 °F
Humidity 96%
Rainfall 2.46 in
Snow Depth Not available.
6:49 AM 7:48 PM
Waning Crescent, 10% visible
METAR KPMP 231953Z AUTO 36005KT 10SM RA FEW060 FEW120 23/22 A2976 RMK AO2 LTG DSNT S SLP078 P0004 T02280217
Pressure 29.76 in
Visibility 10.0 miles
Clouds Few 6000 ft
Few 12000 ft
Dew Point 71 °F
Humidity 96%
Rainfall 2.46 in
Snow Depth Not available.
6:49 AM 7:48 PM
Waning Crescent, 10% visible
METAR KPMP 231953Z AUTO 36005KT 10SM RA FEW060 FEW120 23/22 A2976 RMK AO2 LTG DSNT S SLP078 P0004 T02280217

Get Severe Weather Alerts

Thanks for signing up!

Be on the lookout for a verification email in your inbox.

You'll start receiving the daily forecast at 8 AM.

×

10-Day Weather Forecast

Almanac

Astronomy

Apr. 23, 2017 Rise Set
Actual Time
Civil Twilight
Nautical Twilight
Astronomical Twilight
Moon
Length of Visible Light
Length of Day
Tomorrow will be .
, % of the Moon is Illuminated

Today's Extremes

State Highs State Lows

Community

WunderPhotos

WunderBlog® & News

Nearby

Air Quality

  Air Quality AQ Index Pollutant
Not available.

Snow Depth

Station Depth Elevation

Earthquake Activity

City Distance Mag. Time & Date
Minimum magnitude displayed is 2.5.

Coastal Water Temperatures

Place Temperature

Stations

Nearby Weather Stations

Station Location Temp. Windchill Dew Point Humidity Wind Precip. Elev Updated Type
                   

Watches & Warnings

There are currently no watches in effect.